Time;durP1;ratioP1;P1;durP2;ratioP2;P2;SDS_P1;SDS_P2;PMS_P1;PMS_P2;Temp;Humidity;BMP_temperature;BMP_pressure;BME280_temperature;BME280_humidity;BME280_pressure;Samples;Min_cycle;Max_cycle;Signal;HPM_P1;HPM_P2
2022/03/29 00:01:55;;;;;;;8.35;5.60;;;20.30;51.10;;;;;;4878765;29;20080;-60
2022/03/29 00:04:20;;;;;;;8.98;5.53;;;20.20;51.00;;;;;;4880655;29;20466;-60
2022/03/29 00:06:46;;;;;;;9.00;6.00;;;20.30;51.10;;;;;;4881611;29;20105;-60
2022/03/29 00:09:11;;;;;;;8.57;5.28;;;20.20;51.00;;;;;;4881596;29;20041;-60
2022/03/29 00:11:37;;;;;;;7.45;5.53;;;20.20;51.00;;;;;;4881031;29;20068;-60
2022/03/29 00:14:02;;;;;;;8.75;5.72;;;20.20;51.00;;;;;;4881135;29;20480;-60
2022/03/29 00:16:28;;;;;;;7.75;4.93;;;20.20;51.00;;;;;;4881410;29;20132;-60
2022/03/29 00:18:54;;;;;;;6.88;4.90;;;20.20;51.00;;;;;;4880525;29;20485;-60
2022/03/29 00:21:20;;;;;;;7.90;5.07;;;20.20;50.90;;;;;;4881326;29;20048;-60
2022/03/29 00:23:45;;;;;;;8.25;5.50;;;20.20;50.90;;;;;;4882102;29;20049;-60
2022/03/29 00:26:11;;;;;;;7.90;5.10;;;20.20;50.90;;;;;;4880622;29;20053;-60
2022/03/29 00:28:37;;;;;;;7.60;4.93;;;20.10;50.90;;;;;;4881181;29;20489;-60
2022/03/29 00:31:02;;;;;;;6.88;4.95;;;20.20;50.90;;;;;;4881328;29;20092;-60
2022/03/29 00:33:28;;;;;;;8.32;5.40;;;20.10;50.80;;;;;;4880312;29;20057;-60
2022/03/29 00:35:53;;;;;;;7.72;4.88;;;20.10;50.80;;;;;;4881391;29;20045;-60
2022/03/29 00:38:20;;;;;;;7.97;5.65;;;20.10;50.80;;;;;;4881134;29;20056;-60
2022/03/29 00:40:45;;;;;;;7.93;5.18;;;20.10;50.80;;;;;;4880541;29;20116;-60
2022/03/29 00:43:11;;;;;;;8.20;4.90;;;20.10;50.80;;;;;;4880845;29;20120;-60
2022/03/29 00:45:37;;;;;;;7.07;5.13;;;20.10;50.80;;;;;;4880717;29;20045;-60
2022/03/29 00:48:02;;;;;;;8.30;5.07;;;20.10;50.80;;;;;;4879996;29;20052;-60
2022/03/29 00:50:28;;;;;;;7.22;5.05;;;20.10;50.70;;;;;;4880826;29;20040;-60
2022/03/29 00:52:53;;;;;;;8.90;5.68;;;20.10;50.80;;;;;;4881077;29;20124;-60
2022/03/29 00:55:19;;;;;;;7.70;5.22;;;20.00;50.70;;;;;;4879709;29;20136;-60
2022/03/29 00:57:46;;;;;;;7.63;5.25;;;20.00;50.70;;;;;;4880774;29;20049;-60
2022/03/29 01:00:13;;;;;;;7.88;5.97;;;20.10;50.70;;;;;;4879969;29;20068;-60
2022/03/29 01:02:39;;;;;;;7.85;5.50;;;20.00;50.70;;;;;;4879386;29;20536;-60
2022/03/29 01:05:04;;;;;;;8.43;5.70;;;20.00;50.60;;;;;;4880835;29;20088;-60
2022/03/29 01:07:30;;;;;;;7.95;5.43;;;20.00;50.60;;;;;;4879600;29;20469;-60
2022/03/29 01:09:56;;;;;;;8.63;5.80;;;20.00;50.60;;;;;;4880671;29;20041;-59
2022/03/29 01:12:24;;;;;;;6.60;4.97;;;20.00;50.60;;;;;;4880232;29;20041;-60
2022/03/29 01:14:50;;;;;;;7.80;5.38;;;20.00;50.60;;;;;;4878218;29;20057;-60
2022/03/29 01:20:00;;;;;;;6.85;5.15;;;20.00;50.60;;;;;;4879400;29;20061;-60
2022/03/29 01:22:25;;;;;;;6.85;5.43;;;20.00;50.60;;;;;;4862718;29;20041;-60
2022/03/29 01:24:51;;;;;;;7.05;5.57;;;20.00;50.60;;;;;;4879185;29;20474;-60
2022/03/29 01:27:16;;;;;;;7.00;5.13;;;20.00;50.60;;;;;;4863251;29;20059;-60
2022/03/29 01:29:43;;;;;;;7.93;5.90;;;20.00;50.60;;;;;;4878291;29;20405;-60
2022/03/29 01:32:10;;;;;;;7.25;5.43;;;20.00;50.60;;;;;;4880597;29;20084;-60
2022/03/29 01:34:37;;;;;;;8.43;5.70;;;20.00;50.60;;;;;;4880150;29;20060;-60
2022/03/29 01:37:05;;;;;;;6.90;5.10;;;19.90;50.50;;;;;;4879503;29;20101;-60
2022/03/29 01:39:34;;;;;;;7.75;6.00;;;19.90;50.50;;;;;;4879501;29;20112;-60
2022/03/29 01:42:00;;;;;;;7.97;5.22;;;19.90;50.50;;;;;;4878846;29;20052;-60
2022/03/29 01:44:26;;;;;;;8.10;5.32;;;20.00;50.60;;;;;;4878932;29;20099;-60
2022/03/29 01:46:52;;;;;;;6.97;5.70;;;19.90;50.60;;;;;;4879732;29;20509;-60
2022/03/29 01:49:19;;;;;;;7.97;5.20;;;20.00;50.60;;;;;;4879824;29;20041;-60
2022/03/29 01:51:44;;;;;;;8.05;5.55;;;19.90;50.50;;;;;;4879046;29;20079;-60
2022/03/29 01:54:10;;;;;;;7.38;5.82;;;20.00;50.60;;;;;;4878761;29;20084;-60
2022/03/29 01:56:36;;;;;;;7.45;5.70;;;20.00;50.60;;;;;;4877536;29;20143;-60
2022/03/29 01:59:06;;;;;;;7.70;5.55;;;20.00;50.60;;;;;;4878342;29;20037;-60
2022/03/29 02:01:46;;;;;;;7.45;5.10;;;20.00;50.60;;;;;;4867972;29;20053;-60
2022/03/29 02:04:12;;;;;;;8.20;5.57;;;20.00;50.60;;;;;;4859681;29;20106;-60
2022/03/29 02:06:38;;;;;;;7.18;4.97;;;20.00;50.60;;;;;;4860724;29;20136;-60
2022/03/29 02:09:04;;;;;;;6.93;5.18;;;20.10;50.60;;;;;;4860876;29;20136;-60
2022/03/29 02:11:29;;;;;;;7.18;5.13;;;20.00;50.50;;;;;;4859709;29;20567;-60
2022/03/29 02:13:55;;;;;;;7.65;5.45;;;20.00;50.50;;;;;;4860624;29;20132;-60
2022/03/29 02:16:21;;;;;;;8.25;5.38;;;20.00;50.40;;;;;;4860686;29;20387;-60
2022/03/29 02:18:46;;;;;;;6.38;5.10;;;20.00;50.40;;;;;;4860307;29;20053;-60
2022/03/29 02:21:15;;;;;;;8.18;5.85;;;20.10;50.50;;;;;;4860655;29;20068;-60
2022/03/29 02:23:41;;;;;;;7.10;5.53;;;20.10;50.50;;;;;;4860905;29;20053;-60
2022/03/29 02:26:07;;;;;;;6.55;5.22;;;20.10;50.40;;;;;;4859740;29;20049;-60
2022/03/29 02:28:33;;;;;;;7.53;5.50;;;20.10;50.40;;;;;;4860442;29;20069;-60
2022/03/29 02:30:58;;;;;;;7.47;5.60;;;20.10;50.40;;;;;;4860717;29;20046;-59
2022/03/29 02:33:24;;;;;;;7.05;4.95;;;20.10;50.40;;;;;;4859481;29;20053;-59
2022/03/29 02:35:49;;;;;;;7.25;5.55;;;20.20;50.40;;;;;;4860958;29;20060;-60
2022/03/29 02:38:17;;;;;;;8.60;5.82;;;20.20;50.40;;;;;;4860659;29;20126;-60
2022/03/29 02:40:43;;;;;;;;;;;20.20;50.30;;;;;;4859139;29;20056;-60
2022/03/29 02:43:09;;;;;;;6.75;5.03;;;20.20;50.30;;;;;;4860328;29;19928;-60
2022/03/29 02:45:34;;;;;;;6.30;4.72;;;20.20;50.30;;;;;;4860213;29;20045;-59
2022/03/29 02:48:00;;;;;;;6.78;5.05;;;20.20;50.30;;;;;;4859342;29;20049;-59
2022/03/29 02:50:26;;;;;;;7.40;5.18;;;20.20;50.30;;;;;;4860160;29;20050;-59
2022/03/29 02:52:54;;;;;;;7.55;5.53;;;20.20;50.30;;;;;;4859656;29;20041;-60
2022/03/29 02:55:20;;;;;;;7.38;5.22;;;20.20;50.30;;;;;;4860243;29;20049;-60
2022/03/29 02:57:46;;;;;;;6.55;5.07;;;20.20;50.20;;;;;;4860592;29;20094;-59
2022/03/29 03:00:16;;;;;;;6.90;5.13;;;20.20;50.30;;;;;;4859250;29;20050;-60
2022/03/29 03:02:48;;;;;;;7.15;5.38;;;20.20;50.20;;;;;;4860511;29;20481;-60
2022/03/29 03:05:14;;;;;;;7.00;5.78;;;20.30;50.20;;;;;;4859805;29;20072;-60
2022/03/29 03:07:41;;;;;;;7.63;5.40;;;20.30;50.20;;;;;;4859275;29;20487;-60
2022/03/29 03:10:07;;;;;;;7.45;5.03;;;20.30;50.10;;;;;;4860381;29;20122;-60
2022/03/29 03:12:42;;;;;;;6.38;5.15;;;20.30;50.20;;;;;;4859890;29;20125;-60
2022/03/29 03:15:09;;;;;;;6.93;5.18;;;20.30;50.20;;;;;;4859135;29;20061;-60
2022/03/29 03:17:34;;;;;;;7.80;5.43;;;20.30;50.20;;;;;;4859736;29;20117;-60
2022/03/29 03:20:00;;;;;;;6.75;5.32;;;20.30;50.20;;;;;;4860038;29;20442;-60
2022/03/29 03:22:26;;;;;;;7.00;5.40;;;20.30;50.20;;;;;;4859268;29;20064;-60
2022/03/29 03:24:51;;;;;;;8.00;5.43;;;20.30;50.20;;;;;;4860181;29;20057;-59
2022/03/29 03:27:17;;;;;;;6.90;5.18;;;20.30;50.20;;;;;;4859982;29;20041;-60
2022/03/29 03:29:44;;;;;;;5.88;4.72;;;20.30;50.20;;;;;;4858975;29;20053;-59
2022/03/29 03:32:10;;;;;;;7.03;5.18;;;20.30;50.20;;;;;;4860260;29;20096;-59
2022/03/29 03:34:35;;;;;;;7.32;4.90;;;20.30;50.20;;;;;;4859593;29;20090;-59
2022/03/29 03:37:03;;;;;;;6.60;4.93;;;20.30;50.10;;;;;;4860024;29;20045;-60
2022/03/29 03:39:29;;;;;;;7.13;5.68;;;20.40;50.20;;;;;;4863527;29;20049;-59
2022/03/29 03:41:55;;;;;;;6.82;5.35;;;20.40;50.20;;;;;;4863889;29;20097;-60
2022/03/29 03:44:20;;;;;;;5.78;4.82;;;20.40;50.20;;;;;;4862590;29;20116;-60
2022/03/29 03:46:46;;;;;;;7.13;5.20;;;20.40;50.20;;;;;;4863401;29;20050;-60
2022/03/29 03:49:11;;;;;;;6.68;4.95;;;20.40;50.20;;;;;;4862499;29;20042;-60
2022/03/29 03:51:37;;;;;;;7.40;4.72;;;20.40;50.20;;;;;;4863577;29;20053;-60
2022/03/29 03:54:02;;;;;;;6.95;5.18;;;20.40;50.20;;;;;;4863274;29;20053;-60
2022/03/29 03:56:28;;;;;;;7.45;5.25;;;20.40;50.20;;;;;;4862410;29;20046;-60
2022/03/29 03:58:53;;;;;;;7.78;5.50;;;20.40;50.20;;;;;;4863192;29;20076;-60
2022/03/29 04:01:19;;;;;;;7.55;5.40;;;20.40;50.20;;;;;;4866305;29;20387;-60
2022/03/29 04:03:44;;;;;;;6.65;4.68;;;20.40;50.20;;;;;;4873558;29;20460;-60
2022/03/29 04:06:10;;;;;;;6.32;4.47;;;20.40;50.10;;;;;;4880306;29;20140;-60
2022/03/29 04:08:35;;;;;;;7.07;5.03;;;20.40;50.20;;;;;;4881193;29;20386;-59
2022/03/29 04:11:02;;;;;;;6.43;4.78;;;20.40;50.20;;;;;;4881094;29;20053;-60
2022/03/29 04:13:28;;;;;;;7.07;5.43;;;20.40;50.20;;;;;;4881032;29;20425;-60
2022/03/29 04:15:53;;;;;;;5.97;4.78;;;20.40;50.20;;;;;;4881658;29;20124;-59
2022/03/29 04:18:19;;;;;;;5.93;4.55;;;20.40;50.30;;;;;;4880430;29;20057;-60
2022/03/29 04:20:45;;;;;;;6.68;4.75;;;20.40;50.20;;;;;;4881473;29;20496;-59
2022/03/29 04:23:10;;;;;;;6.80;5.13;;;20.40;50.10;;;;;;4881273;29;20053;-60
2022/03/29 04:25:36;;;;;;;6.65;4.97;;;20.40;50.10;;;;;;4881019;29;20072;-59
2022/03/29 04:28:02;;;;;;;6.70;5.00;;;20.40;50.10;;;;;;4881449;29;20439;-59
2022/03/29 04:30:27;;;;;;;7.22;4.97;;;20.40;50.10;;;;;;4881111;29;20048;-59
2022/03/29 04:32:54;;;;;;;6.35;4.95;;;20.40;50.20;;;;;;4880736;29;20041;-59
2022/03/29 04:35:19;;;;;;;7.15;4.82;;;20.40;50.10;;;;;;4881042;29;20064;-60
2022/03/29 04:37:45;;;;;;;7.30;5.13;;;20.40;50.10;;;;;;4881425;29;20037;-60
2022/03/29 04:40:12;;;;;;;6.75;5.20;;;20.40;50.10;;;;;;4880370;29;20128;-59
2022/03/29 04:42:47;;;;;;;7.72;5.28;;;20.40;50.10;;;;;;4880914;29;20041;-59
2022/03/29 04:45:14;;;;;;;7.07;5.25;;;20.40;50.10;;;;;;4880544;29;20508;-60
2022/03/29 04:47:40;;;;;;;7.60;4.95;;;20.40;50.10;;;;;;4880546;29;20052;-60
2022/03/29 04:50:07;;;;;;;6.68;4.85;;;20.40;50.10;;;;;;4880940;29;20052;-60
2022/03/29 04:52:33;;;;;;;6.47;5.13;;;20.40;50.10;;;;;;4880007;29;20124;-59
2022/03/29 04:54:58;;;;;;;6.53;5.15;;;20.40;50.10;;;;;;4881074;29;20133;-60
2022/03/29 04:57:24;;;;;;;8.15;5.28;;;20.40;50.10;;;;;;4880436;29;20056;-59
2022/03/29 04:59:49;;;;;;;7.13;5.25;;;20.40;50.10;;;;;;4879877;29;20378;-59
2022/03/29 05:02:15;;;;;;;8.40;5.10;;;20.40;50.10;;;;;;4880249;29;20049;-60
2022/03/29 05:04:40;;;;;;;6.72;5.30;;;20.40;50.10;;;;;;4880825;29;20108;-60
2022/03/29 05:07:06;;;;;;;7.45;5.05;;;20.40;50.20;;;;;;4879800;29;20413;-60
2022/03/29 05:09:31;;;;;;;6.05;4.53;;;20.40;50.20;;;;;;4880323;29;20059;-59
2022/03/29 05:11:59;;;;;;;7.13;5.32;;;20.40;50.10;;;;;;4880628;29;20132;-60
2022/03/29 05:14:25;;;;;;;6.37;4.90;;;20.40;50.20;;;;;;4879407;29;20133;-59
2022/03/29 05:16:50;;;;;;;6.15;4.03;;;20.40;50.20;;;;;;4880257;29;20057;-59
2022/03/29 05:19:16;;;;;;;7.32;5.15;;;20.40;50.20;;;;;;4880234;29;20049;-60
2022/03/29 05:21:42;;;;;;;6.78;4.90;;;20.40;50.20;;;;;;4878459;29;20037;-59
2022/03/29 05:24:08;;;;;;;6.30;4.60;;;20.40;50.10;;;;;;4880150;29;20048;-60
2022/03/29 05:26:34;;;;;;;8.43;4.97;;;20.50;50.20;;;;;;4880029;29;20049;-60
2022/03/29 05:28:59;;;;;;;5.85;4.47;;;20.50;50.20;;;;;;4879507;29;20124;-60
2022/03/29 05:31:25;;;;;;;7.00;5.07;;;20.50;50.20;;;;;;4879813;29;20057;-60
2022/03/29 05:33:50;;;;;;;6.72;5.10;;;20.50;50.20;;;;;;4878764;29;20048;-59
2022/03/29 05:36:16;;;;;;;6.07;4.53;;;20.50;50.20;;;;;;4879310;29;20477;-60
2022/03/29 05:38:48;;;;;;;5.75;4.45;;;20.50;50.10;;;;;;4880302;29;20055;-60
2022/03/29 05:41:15;;;;;;;6.90;4.75;;;20.50;50.10;;;;;;4880050;29;20073;-59
2022/03/29 05:43:41;;;;;;;6.28;4.75;;;20.50;50.90;;;;;;4879546;29;20068;-60
2022/03/29 05:49:08;;;;;;;5.53;4.38;;;20.50;50.10;;;;;;4876792;29;20106;-60
2022/03/29 05:51:33;;;;;;;7.00;5.28;;;20.50;50.20;;;;;;4879129;29;20481;-60
2022/03/29 05:54:01;;;;;;;6.10;5.05;;;20.50;50.20;;;;;;4878670;29;20105;-60
2022/03/29 05:56:27;;;;;;;8.07;4.57;;;20.60;50.20;;;;;;4878583;29;20566;-60
2022/03/29 05:58:52;;;;;;;7.65;4.97;;;20.50;50.10;;;;;;4879681;29;20033;-60
2022/03/29 06:01:18;;;;;;;6.40;4.60;;;20.50;50.10;;;;;;4878303;29;20601;-59
2022/03/29 06:03:44;;;;;;;6.60;4.50;;;20.60;50.20;;;;;;4878531;29;20045;-59
2022/03/29 06:06:09;;;;;;;6.65;4.55;;;20.60;50.30;;;;;;4879607;29;20061;-59
2022/03/29 06:08:35;;;;;;;7.30;4.90;;;20.60;50.20;;;;;;4879080;29;20067;-59
2022/03/29 06:11:01;;;;;;;6.65;4.47;;;20.60;50.30;;;;;;4878710;29;20492;-59
2022/03/29 06:13:27;;;;;;;6.63;4.50;;;20.60;50.30;;;;;;4879131;29;20136;-59
2022/03/29 06:15:53;;;;;;;6.07;4.00;;;20.60;50.30;;;;;;4879494;29;20060;-59
2022/03/29 06:18:22;;;;;;;6.57;4.50;;;20.60;50.30;;;;;;4878190;29;20045;-59
2022/03/29 06:20:48;;;;;;;8.20;4.82;;;20.60;50.40;;;;;;4879250;29;20045;-59
2022/03/29 06:23:14;;;;;;;7.63;4.82;;;20.70;50.50;;;;;;4878962;29;20052;-59
2022/03/29 06:25:39;;;;;;;8.52;4.95;;;20.70;50.50;;;;;;4878314;29;20075;-59
2022/03/29 06:28:05;;;;;;;5.85;4.45;;;20.70;50.50;;;;;;4879359;29;20516;-58
2022/03/29 06:30:30;;;;;;;7.03;4.40;;;20.70;50.50;;;;;;4878968;29;20105;-59
2022/03/29 06:32:56;;;;;;;6.47;4.68;;;20.70;50.60;;;;;;4877163;29;20049;-59
2022/03/29 06:35:23;;;;;;;6.57;4.28;;;20.70;50.50;;;;;;4878587;29;20045;-59
2022/03/29 06:37:50;;;;;;;8.10;4.88;;;20.70;50.60;;;;;;4878460;29;20045;-59
2022/03/29 06:40:15;;;;;;;7.93;4.80;;;20.70;50.60;;;;;;4878937;29;20135;-59
2022/03/29 06:42:41;;;;;;;6.60;4.63;;;20.70;50.70;;;;;;4877674;29;20564;-59
2022/03/29 06:45:08;;;;;;;6.97;4.68;;;20.70;50.80;;;;;;4877995;29;20045;-59
2022/03/29 06:47:33;;;;;;;7.20;4.75;;;20.70;50.80;;;;;;4878374;29;20109;-59
2022/03/29 06:49:59;;;;;;;6.53;5.10;;;20.70;50.90;;;;;;4879140;29;20053;-59
2022/03/29 06:52:26;;;;;;;7.15;4.75;;;20.70;50.90;;;;;;4895858;29;20047;-59
2022/03/29 06:54:52;;;;;;;8.25;5.57;;;20.70;51.00;;;;;;4896443;29;20083;-59
2022/03/29 06:57:18;;;;;;;6.97;4.65;;;20.80;51.10;;;;;;4897149;29;20405;-59
2022/03/29 06:59:44;;;;;;;6.68;4.72;;;20.80;51.20;;;;;;4897051;29;20040;-59
2022/03/29 07:02:09;;;;;;;9.25;5.10;;;20.80;51.20;;;;;;4897308;29;20048;-59
2022/03/29 07:04:34;;;;;;;7.07;4.68;;;20.80;51.20;;;;;;4897161;29;20048;-59
2022/03/29 07:07:00;;;;;;;9.45;5.72;;;20.80;51.20;;;;;;4896410;29;20048;-59
2022/03/29 07:12:11;;;;;;;8.38;5.03;;;20.80;51.40;;;;;;4881526;29;20081;-59
2022/03/29 07:14:37;;;;;;;8.02;4.68;;;20.80;51.40;;;;;;4881599;29;20053;-60
2022/03/29 07:17:05;;;;;;;8.13;4.95;;;20.90;51.50;;;;;;4882729;29;20041;-59
2022/03/29 07:19:31;;;;;;;9.35;6.05;;;20.90;52.20;;;;;;4881970;29;20049;-59
2022/03/29 07:21:56;;;;;;;10.88;5.45;;;20.90;51.60;;;;;;4881052;29;20041;-59
2022/03/29 07:24:22;;;;;;;9.90;5.72;;;20.90;51.70;;;;;;4882233;29;20045;-60
2022/03/29 07:26:47;;;;;;;9.20;5.35;;;20.90;51.70;;;;;;4882164;29;20037;-59
2022/03/29 07:29:13;;;;;;;10.75;5.18;;;20.90;51.80;;;;;;4880962;29;20041;-59
2022/03/29 07:31:39;;;;;;;8.60;5.70;;;20.90;51.80;;;;;;4881985;29;20108;-60
2022/03/29 07:34:05;;;;;;;13.02;5.53;;;20.90;51.80;;;;;;4881401;29;20076;-60
2022/03/29 07:36:31;;;;;;;8.73;5.72;;;21.00;51.90;;;;;;4881963;29;20059;-60
2022/03/29 07:38:56;;;;;;;9.07;5.72;;;21.00;52.10;;;;;;4895071;29;20131;-59
2022/03/29 07:41:22;;;;;;;9.05;5.13;;;21.00;52.10;;;;;;4899883;29;20440;-61
2022/03/29 07:43:47;;;;;;;7.50;5.07;;;21.00;52.20;;;;;;4900759;29;20092;-59
2022/03/29 07:46:13;;;;;;;8.75;5.22;;;21.00;52.20;;;;;;4900209;29;20050;-59
2022/03/29 07:48:39;;;;;;;11.30;5.45;;;21.10;52.20;;;;;;4899876;29;20096;-59
2022/03/29 07:51:05;;;;;;;7.07;4.75;;;21.10;52.30;;;;;;4900579;29;20506;-59
2022/03/29 07:53:31;;;;;;;9.02;5.32;;;21.10;52.20;;;;;;4899761;29;20060;-59
2022/03/29 07:55:56;;;;;;;8.63;5.47;;;21.10;52.10;;;;;;4898948;29;20056;-59
2022/03/29 07:58:23;;;;;;;9.27;5.15;;;21.10;52.10;;;;;;4898787;29;20088;-59
2022/03/29 08:00:51;;;;;;;8.95;5.40;;;21.10;52.00;;;;;;4900427;29;20449;-59
2022/03/29 08:03:17;;;;;;;;;;;21.20;52.10;;;;;;4900573;29;20112;-59
2022/03/29 08:05:43;;;;;;;8.30;5.55;;;21.20;52.20;;;;;;4899524;29;19923;-58
2022/03/29 08:08:15;;;;;;;9.52;5.00;;;21.20;52.20;;;;;;4900543;29;20048;-59
2022/03/29 08:10:42;;;;;;;8.82;5.10;;;21.20;52.20;;;;;;4899380;29;20512;-58
2022/03/29 08:13:08;;;;;;;7.80;5.18;;;21.20;52.20;;;;;;4900233;29;20056;-59
2022/03/29 08:15:34;;;;;;;10.20;5.30;;;21.20;52.20;;;;;;4899747;29;20045;-59
2022/03/29 08:18:00;;;;;;;8.25;5.15;;;21.30;52.20;;;;;;4899611;29;20103;-58
2022/03/29 08:20:26;;;;;;;7.78;4.72;;;21.30;52.20;;;;;;4900067;29;20040;-58
2022/03/29 08:22:53;;;;;;;9.45;5.15;;;21.30;52.20;;;;;;4899490;29;20045;-58
2022/03/29 08:25:21;;;;;;;7.97;5.10;;;21.30;52.20;;;;;;4899185;29;20083;-59
2022/03/29 08:27:47;;;;;;;9.85;4.63;;;21.30;52.20;;;;;;4899999;29;20132;-58
2022/03/29 08:30:13;;;;;;;9.52;4.70;;;21.30;52.10;;;;;;4899831;29;20081;-59
2022/03/29 08:32:39;;;;;;;8.82;5.07;;;21.30;52.10;;;;;;4899234;29;20486;-58
2022/03/29 08:35:06;;;;;;;8.85;5.03;;;21.40;52.20;;;;;;4900104;29;20045;-58
2022/03/29 08:37:32;;;;;;;9.93;4.97;;;21.40;52.20;;;;;;4897605;29;20394;-59
2022/03/29 08:39:57;;;;;;;8.05;4.88;;;21.40;52.20;;;;;;4899748;29;20052;-59
2022/03/29 08:42:23;;;;;;;8.10;5.10;;;21.40;52.10;;;;;;4899466;29;20049;-58
2022/03/29 08:44:49;;;;;;;9.13;5.40;;;21.40;52.00;;;;;;4882310;29;20055;-58
2022/03/29 08:47:15;;;;;;;8.95;5.50;;;21.40;51.90;;;;;;4898870;29;20056;-58
2022/03/29 08:49:43;;;;;;;9.65;5.95;;;21.40;51.70;;;;;;4899612;29;20048;-58
2022/03/29 08:52:10;;;;;;;12.60;7.20;;;21.40;51.40;;;;;;4898001;29;20477;-59
2022/03/29 08:54:35;;;;;;;8.93;5.80;;;21.40;50.50;;;;;;4899822;29;20128;-60
2022/03/29 08:57:01;;;;;;;10.32;6.32;;;21.40;50.20;;;;;;4889888;29;20446;-58
2022/03/29 08:59:27;;;;;;;9.02;5.90;;;21.40;50.40;;;;;;4878967;29;20045;-59
2022/03/29 09:01:53;;;;;;;11.15;5.68;;;21.40;50.70;;;;;;4880105;29;20146;-58
2022/03/29 09:04:22;;;;;;;10.07;5.90;;;21.40;50.80;;;;;;4880031;29;20051;-59
2022/03/29 09:06:54;;;;;;;7.60;5.35;;;21.40;51.10;;;;;;4879601;29;20041;-59
2022/03/29 09:09:32;;;;;;;8.57;5.45;;;21.40;51.30;;;;;;4878152;29;20055;-59
2022/03/29 09:12:00;;;;;;;9.27;5.47;;;21.50;51.50;;;;;;4880108;29;20059;-59
2022/03/29 09:14:29;;;;;;;9.63;5.07;;;21.50;51.60;;;;;;4879115;29;20049;-59
2022/03/29 09:16:55;;;;;;;10.48;5.63;;;21.50;51.70;;;;;;4879396;29;20053;-58
2022/03/29 09:19:25;;;;;;;10.75;5.57;;;21.50;51.60;;;;;;4880076;29;20056;-59
2022/03/29 09:21:51;;;;;;;8.38;5.05;;;21.50;51.70;;;;;;4879822;29;20499;-59
2022/03/29 09:24:18;;;;;;;8.75;5.25;;;21.50;51.80;;;;;;4879882;29;20049;-59
2022/03/29 09:26:49;;;;;;;10.27;5.75;;;21.50;51.90;;;;;;4878626;29;20052;-59
2022/03/29 09:29:20;;;;;;;6.93;4.85;;;21.50;51.90;;;;;;4880118;29;20474;-59
2022/03/29 09:31:47;;;;;;;8.65;5.47;;;21.50;52.00;;;;;;4879858;29;20521;-59
2022/03/29 09:34:20;;;;;;;6.70;5.35;;;21.50;52.00;;;;;;4877766;29;20045;-59
2022/03/29 09:36:51;;;;;;;9.23;5.70;;;21.50;52.10;;;;;;4877430;29;20072;-59
2022/03/29 09:39:39;;;;;;;8.60;5.13;;;21.60;52.30;;;;;;4879233;29;20120;-59
2022/03/29 09:42:13;;;;;;;7.68;5.18;;;21.60;52.20;;;;;;4879506;29;20044;-59
2022/03/29 09:44:52;;;;;;;9.10;5.43;;;21.60;52.30;;;;;;4879772;29;20045;-59
2022/03/29 09:47:20;;;;;;;8.65;4.90;;;21.60;52.20;;;;;;4879566;29;20109;-59
2022/03/29 09:49:54;;;;;;;8.40;5.43;;;21.60;52.30;;;;;;4879044;29;20045;-59
2022/03/29 09:52:24;;;;;;;9.80;5.93;;;21.60;52.40;;;;;;4879799;29;20157;-59
2022/03/29 09:55:20;;;;;;;9.63;5.70;;;21.60;52.40;;;;;;4879232;29;20045;-59
2022/03/29 09:57:53;;;;;;;9.40;5.35;;;21.60;52.50;;;;;;4879771;29;20085;-59
2022/03/29 10:00:24;;;;;;;9.20;5.53;;;21.60;52.70;;;;;;4879230;29;20119;-59
2022/03/29 10:02:50;;;;;;;8.45;5.43;;;21.60;52.70;;;;;;4879036;29;20055;-59
2022/03/29 10:05:17;;;;;;;9.90;5.05;;;21.60;52.80;;;;;;4882846;29;20045;-59
2022/03/29 10:10:59;;;;;;;9.70;5.80;;;21.60;52.60;;;;;;4878956;29;20155;-59
2022/03/29 10:13:24;;;;;;;10.90;6.10;;;21.60;52.50;;;;;;4890985;29;20504;-59
2022/03/29 10:15:50;;;;;;;10.80;6.00;;;21.60;52.50;;;;;;4878251;29;20132;-60
2022/03/29 10:18:16;;;;;;;9.95;6.32;;;21.60;52.50;;;;;;4878947;29;20052;-59
2022/03/29 10:20:42;;;;;;;11.60;6.60;;;21.60;52.60;;;;;;4879099;29;20053;-60
2022/03/29 10:23:07;;;;;;;11.68;6.80;;;21.60;52.70;;;;;;4877853;29;20089;-59
2022/03/29 10:25:33;;;;;;;9.88;6.60;;;21.60;52.70;;;;;;4878393;29;20048;-59
2022/03/29 10:28:00;;;;;;;9.95;6.32;;;21.60;52.80;;;;;;4861151;29;20045;-60
2022/03/29 10:30:33;;;;;;;12.95;6.78;;;21.60;52.80;;;;;;4875427;29;20041;-60
2022/03/29 10:33:24;;;;;;;15.15;6.38;;;21.60;52.90;;;;;;4878912;29;20049;-60
2022/03/29 10:36:09;;;;;;;12.27;6.68;;;21.60;52.90;;;;;;4879078;29;20052;-60
2022/03/29 10:41:28;;;;;;;10.38;6.68;;;21.60;53.00;;;;;;4878953;29;20417;-60
2022/03/29 10:44:01;;;;;;;12.85;6.65;;;21.60;53.00;;;;;;4878799;29;20083;-60
2022/03/29 10:46:42;;;;;;;13.05;7.20;;;21.60;53.00;;;;;;4878398;29;20454;-60
2022/03/29 10:49:34;;;;;;;11.38;6.63;;;21.60;53.00;;;;;;4879026;29;20057;-59
2022/03/29 10:52:05;;;;;;;12.90;7.10;;;21.60;53.00;;;;;;4878340;29;20610;-60
2022/03/29 10:54:36;;;;;;;12.88;6.75;;;21.60;52.90;;;;;;4878705;29;20517;-60
2022/03/29 10:57:30;;;;;;;9.60;6.40;;;21.60;53.00;;;;;;4878653;29;20409;-60
2022/03/29 11:00:08;;;;;;;12.43;7.13;;;21.60;52.90;;;;;;4876689;29;20048;-59
2022/03/29 11:02:34;;;;;;;11.80;6.93;;;21.60;52.90;;;;;;4876898;29;20049;-59
2022/03/29 11:05:00;;;;;;;15.88;7.15;;;21.60;52.90;;;;;;4875660;29;20401;-59
2022/03/29 11:07:26;;;;;;;11.82;7.32;;;21.60;53.00;;;;;;4876919;29;20127;-59
2022/03/29 11:10:07;;;;;;;11.38;7.25;;;21.60;53.00;;;;;;4877200;29;20531;-59
2022/03/29 11:12:39;;;;;;;12.05;7.18;;;21.60;52.80;;;;;;4876344;29;20051;-59
2022/03/29 11:15:23;;;;;;;12.55;6.90;;;21.60;52.70;;;;;;4875429;29;20076;-59
2022/03/29 11:17:49;;;;;;;12.93;7.60;;;21.60;52.50;;;;;;4877604;29;20059;-60
2022/03/29 11:20:38;;;;;;;11.80;7.72;;;21.60;52.50;;;;;;4877882;29;20041;-60
2022/03/29 11:23:05;;;;;;;13.38;7.63;;;21.70;52.60;;;;;;4875988;29;20037;-59
2022/03/29 11:25:40;;;;;;;12.65;7.55;;;21.60;52.50;;;;;;4877937;29;20057;-59
2022/03/29 11:28:07;;;;;;;10.15;7.15;;;21.60;52.40;;;;;;4878028;29;20053;-59
2022/03/29 11:30:34;;;;;;;13.35;7.10;;;21.60;52.30;;;;;;4878338;29;20045;-59
2022/03/29 11:33:00;;;;;;;12.57;8.30;;;21.60;52.20;;;;;;4878360;29;20044;-59
2022/03/29 11:35:26;;;;;;;15.02;7.07;;;21.60;52.20;;;;;;4877589;29;20116;-59
2022/03/29 11:37:53;;;;;;;10.90;7.78;;;21.60;52.40;;;;;;4878229;29;20535;-59
2022/03/29 11:40:23;;;;;;;12.35;7.47;;;21.60;52.30;;;;;;4877821;29;20537;-59
2022/03/29 11:42:51;;;;;;;12.40;6.78;;;21.60;52.30;;;;;;4878625;29;20081;-59
2022/03/29 11:45:17;;;;;;;14.30;7.82;;;21.60;52.40;;;;;;4878199;29;20498;-60
2022/03/29 11:47:58;;;;;;;14.73;7.97;;;21.60;52.40;;;;;;4877653;29;20041;-60
2022/03/29 11:50:43;;;;;;;13.43;6.97;;;21.60;52.40;;;;;;4878144;29;20494;-59
2022/03/29 11:53:24;;;;;;;13.55;7.50;;;21.60;52.40;;;;;;4878556;29;20049;-60
2022/03/29 11:56:05;;;;;;;12.43;7.03;;;21.60;52.40;;;;;;4877829;29;20053;-60
2022/03/29 11:58:35;;;;;;;11.75;7.05;;;21.70;52.50;;;;;;4879406;29;20049;-59
2022/03/29 12:01:08;;;;;;;11.45;7.07;;;21.70;52.40;;;;;;4881624;29;20493;-60
2022/03/29 12:03:34;;;;;;;12.70;7.25;;;21.70;52.40;;;;;;4880694;29;20136;-60
2022/03/29 12:06:08;;;;;;;10.57;7.32;;;21.70;52.30;;;;;;4881588;29;20513;-59
2022/03/29 12:08:56;;;;;;;10.05;7.00;;;21.70;52.40;;;;;;4880547;29;20052;-60
2022/03/29 12:11:35;;;;;;;10.45;6.93;;;21.70;52.40;;;;;;4880449;29;20049;-59
2022/03/29 12:14:11;;;;;;;9.45;7.18;;;21.70;52.40;;;;;;4880541;29;20084;-59
2022/03/29 12:16:44;;;;;;;11.00;7.18;;;21.70;52.50;;;;;;4862217;29;20050;-59
2022/03/29 12:19:25;;;;;;;12.40;6.90;;;21.70;52.40;;;;;;4861780;29;20057;-57
2022/03/29 12:21:56;;;;;;;12.27;6.57;;;21.70;52.30;;;;;;4862808;29;20072;-60
2022/03/29 12:24:22;;;;;;;14.55;7.10;;;21.70;52.40;;;;;;4862074;29;20045;-59
2022/03/29 12:26:49;;;;;;;12.32;6.93;;;21.70;52.50;;;;;;4861469;29;20121;-58
2022/03/29 12:29:16;;;;;;;14.60;7.60;;;21.80;52.80;;;;;;4862517;29;20045;-59
2022/03/29 12:31:42;;;;;;;13.30;6.97;;;21.70;53.00;;;;;;4860881;29;20057;-59
2022/03/29 12:34:08;;;;;;;12.50;7.38;;;21.70;53.10;;;;;;4864991;29;20052;-59
2022/03/29 12:36:36;;;;;;;11.30;6.60;;;21.70;53.20;;;;;;4880230;29;20052;-59
2022/03/29 12:39:06;;;;;;;9.88;6.47;;;21.80;53.30;;;;;;4879789;29;20055;-59
2022/03/29 12:41:35;;;;;;;9.82;6.60;;;21.80;53.30;;;;;;4880878;29;20049;-59
2022/03/29 12:44:01;;;;;;;12.45;7.35;;;21.80;53.20;;;;;;4880544;29;20072;-60
2022/03/29 12:46:28;;;;;;;12.80;6.85;;;21.80;53.20;;;;;;4880265;29;20461;-59
2022/03/29 12:48:55;;;;;;;12.27;7.18;;;21.80;53.20;;;;;;4892317;29;20052;-59
2022/03/29 12:51:51;;;;;;;13.25;7.10;;;21.80;53.10;;;;;;4898894;29;20049;-60
2022/03/29 12:54:17;;;;;;;9.10;6.50;;;21.80;53.10;;;;;;4898631;29;20108;-59
2022/03/29 12:56:46;;;;;;;11.13;7.20;;;21.80;53.10;;;;;;4899460;29;20056;-59
2022/03/29 12:59:28;;;;;;;12.75;7.07;;;21.80;53.20;;;;;;4898682;29;20045;-60
2022/03/29 13:02:13;;;;;;;10.93;7.05;;;21.80;53.10;;;;;;4898688;29;20048;-59
2022/03/29 13:04:46;;;;;;;11.95;7.03;;;21.80;53.10;;;;;;4897377;29;20181;-60